createdAt,value
2023-10-25T00:03:42.319Z,26.48
2023-10-25T00:08:46.248Z,24.13
2023-10-25T00:13:51.087Z,23.27
2023-10-25T00:18:56.238Z,26.73
2023-10-25T00:24:00.048Z,25.25
2023-10-25T00:29:04.164Z,27.00
2023-10-25T00:34:09.257Z,21.70
2023-10-25T00:39:13.231Z,16.83
2023-10-25T00:44:16.932Z,24.38
2023-10-25T00:49:22.158Z,23.23
2023-10-25T00:59:32.134Z,20.33
2023-10-25T01:04:37.569Z,19.50
2023-10-25T01:09:41.647Z,21.38
2023-10-25T01:14:45.693Z,20.80
2023-10-25T01:19:50.834Z,23.13
2023-10-25T01:24:55.925Z,15.13
2023-10-25T01:29:59.755Z,20.33
2023-10-25T01:35:03.586Z,19.38
2023-10-25T01:40:10.343Z,25.45
2023-10-25T01:45:14.173Z,25.90
2023-10-25T01:50:19.345Z,28.42
2023-10-25T01:55:25.902Z,31.33
2023-10-25T02:00:29.937Z,33.17
2023-10-25T02:05:33.758Z,41.63
2023-10-25T02:10:39.569Z,34.97
2023-10-25T02:15:43.309Z,32.13
2023-10-25T02:20:47.291Z,31.80
2023-10-25T02:25:52.400Z,38.42
2023-10-25T02:30:56.103Z,29.08
2023-10-25T02:35:59.999Z,32.90
2023-10-25T02:41:05.479Z,30.23
2023-10-25T02:46:10.453Z,27.13
2023-10-25T02:51:14.619Z,28.23
2023-10-25T02:56:20.889Z,31.00
2023-10-25T03:01:26.041Z,39.15
2023-10-25T03:11:35.806Z,25.47
2023-10-25T03:16:39.887Z,32.05
2023-10-25T03:21:43.712Z,34.35
2023-10-25T03:26:49.234Z,34.17
2023-10-25T03:31:54.901Z,26.30
2023-10-25T03:36:58.743Z,31.50
2023-10-25T03:42:04.933Z,38.38
2023-10-25T03:47:08.675Z,30.65
2023-10-25T03:52:13.660Z,31.17
2023-10-25T03:57:18.812Z,31.40
2023-10-25T04:02:22.532Z,41.95
2023-10-25T04:07:26.304Z,36.92
2023-10-25T04:12:32.015Z,32.83
2023-10-25T04:17:35.878Z,30.80
2023-10-25T04:22:39.640Z,30.55
2023-10-25T04:27:45.518Z,32.42
2023-10-25T04:32:49.262Z,29.25
2023-10-25T04:37:54.209Z,34.67
2023-10-25T04:42:59.415Z,32.10
2023-10-25T04:48:03.682Z,29.15
2023-10-25T04:53:08.082Z,32.40
2023-10-25T04:58:13.364Z,32.97
2023-10-25T05:08:21.678Z,32.83
2023-10-25T05:13:27.553Z,42.58
2023-10-25T05:18:32.612Z,33.67
2023-10-25T05:23:36.815Z,36.25
2023-10-25T05:28:42.707Z,30.17
2023-10-25T05:33:46.927Z,28.98
2023-10-25T05:38:51.627Z,33.28
2023-10-25T05:44:04.743Z,38.08
2023-10-25T05:49:09.468Z,29.85
2023-10-25T05:54:14.640Z,30.50
2023-10-25T05:59:20.838Z,29.38
2023-10-25T06:04:25.574Z,36.10
2023-10-25T06:09:30.185Z,51.97
2023-10-25T06:14:35.542Z,45.30
2023-10-25T06:24:42.970Z,47.95
2023-10-25T06:34:53.103Z,47.58
2023-10-25T06:39:57.612Z,53.78
2023-10-25T06:45:03.640Z,44.23
2023-10-25T06:50:09.215Z,44.65
2023-10-25T06:55:15.899Z,44.78
2023-10-25T07:00:23.341Z,51.45
2023-10-25T07:05:27.519Z,54.38
2023-10-25T07:10:32.698Z,56.20
2023-10-25T07:25:45.808Z,49.05
2023-10-25T07:30:51.481Z,44.40
2023-10-25T07:35:55.357Z,43.97
2023-10-25T07:40:59.179Z,39.70
2023-10-25T07:46:05.377Z,54.25
2023-10-25T07:51:09.116Z,48.58
2023-10-25T08:01:21.415Z,45.92
2023-10-25T08:06:25.354Z,45.38
2023-10-25T08:11:29.417Z,34.00
2023-10-25T08:16:40.014Z,53.88
2023-10-25T08:21:43.789Z,36.13
2023-10-25T08:26:47.559Z,44.50
2023-10-25T08:31:54.035Z,39.03
2023-10-25T08:36:58.532Z,38.25
2023-10-25T08:42:03.696Z,28.70
2023-10-25T08:52:14.981Z,42.10
2023-10-25T08:57:19.558Z,44.20
2023-10-25T09:02:24.766Z,39.53
2023-10-25T09:07:30.330Z,37.35
2023-10-25T09:12:34.552Z,36.42
2023-10-25T09:17:40.925Z,35.85
2023-10-25T09:22:45.190Z,38.80
2023-10-25T09:27:48.957Z,38.38
2023-10-25T09:32:54.276Z,34.75
2023-10-25T09:37:58.195Z,29.77
2023-10-25T09:43:10.182Z,25.48
2023-10-25T09:48:17.613Z,31.40
2023-10-25T09:53:27.692Z,25.02
2023-10-25T09:58:34.553Z,24.63
2023-10-25T10:03:47.628Z,23.75
2023-10-25T10:08:57.923Z,19.83
2023-10-25T10:14:31.069Z,26.58
2023-10-25T10:19:39.379Z,35.72
2023-10-25T10:24:45.396Z,42.15
2023-10-25T10:29:50.148Z,26.85
2023-10-25T10:34:58.737Z,28.77
2023-10-25T10:40:15.564Z,31.80
2023-10-25T10:45:21.042Z,24.17
2023-10-25T10:50:27.245Z,23.95
2023-10-25T10:55:31.603Z,20.98
2023-10-25T11:00:35.677Z,18.98
2023-10-25T11:05:40.962Z,17.00
2023-10-25T11:10:45.014Z,19.52
2023-10-25T11:15:49.083Z,23.95
2023-10-25T11:20:54.292Z,20.13
2023-10-25T11:31:03.556Z,16.83
2023-10-25T11:36:08.743Z,14.35
2023-10-25T11:46:16.916Z,14.73
2023-10-25T11:51:22.046Z,11.37
2023-10-25T12:01:29.584Z,12.23
2023-10-25T12:06:36.342Z,10.68
2023-10-25T12:11:40.797Z,13.85
2023-10-25T12:16:46.786Z,7.60
2023-10-25T12:22:01.252Z,24.08
2023-10-25T12:27:06.308Z,11.90
2023-10-25T12:32:10.303Z,8.55
2023-10-25T12:37:15.551Z,7.43
2023-10-25T12:47:23.692Z,7.45
2023-10-25T12:52:28.834Z,5.75
2023-10-25T13:02:36.238Z,7.28
2023-10-25T13:07:44.256Z,6.07
2023-10-25T13:12:48.289Z,9.40
2023-10-25T13:17:52.090Z,5.22
2023-10-25T13:23:00.869Z,4.53
2023-10-25T13:28:05.070Z,5.30
2023-10-25T13:33:09.323Z,6.40
2023-10-25T13:38:14.750Z,5.77
2023-10-25T13:43:18.763Z,5.93
2023-10-25T13:48:22.602Z,7.60
2023-10-25T13:53:28.158Z,5.30
2023-10-25T14:03:36.146Z,5.00
2023-10-25T14:08:41.360Z,5.03
2023-10-25T14:18:49.688Z,3.47
2023-10-25T14:23:54.903Z,5.20
2023-10-25T14:34:02.737Z,4.80
2023-10-25T14:39:09.222Z,9.40
2023-10-25T14:44:13.287Z,6.30
2023-10-25T14:49:17.416Z,8.43
2023-10-25T14:54:22.562Z,5.78
2023-10-25T14:59:33.032Z,9.30
2023-10-25T15:04:36.837Z,12.02
2023-10-25T15:09:44.488Z,9.13
2023-10-25T15:14:53.724Z,5.30
2023-10-25T15:19:58.119Z,7.22
2023-10-25T15:25:04.610Z,4.40
2023-10-25T15:30:11.055Z,6.97
2023-10-25T15:35:15.338Z,4.72
2023-10-25T15:40:25.024Z,4.65
2023-10-25T15:45:33.675Z,7.10
2023-10-25T15:50:37.597Z,5.63
2023-10-25T15:55:42.924Z,5.68
2023-10-25T16:00:46.782Z,8.38
2023-10-25T16:05:50.584Z,8.85
2023-10-25T16:10:57.813Z,5.97
2023-10-25T16:16:04.422Z,8.13
2023-10-25T16:21:08.638Z,10.57
2023-10-25T16:26:15.261Z,11.07
2023-10-25T16:31:21.412Z,20.83
2023-10-25T16:36:25.624Z,18.13
2023-10-25T16:41:30.992Z,15.50
2023-10-25T16:51:38.454Z,16.23
2023-10-25T16:56:43.828Z,18.60
2023-10-25T17:01:47.950Z,20.67
2023-10-25T17:06:51.910Z,21.85
2023-10-25T17:11:57.376Z,20.00
2023-10-25T17:17:01.295Z,23.75
2023-10-25T17:22:05.096Z,20.00
2023-10-25T17:27:11.174Z,20.48
2023-10-25T17:32:15.511Z,19.48
2023-10-25T17:37:19.147Z,20.48
2023-10-25T17:42:24.356Z,23.70
2023-10-25T17:47:29.374Z,27.48
2023-10-25T17:52:43.574Z,22.65
2023-10-25T17:57:51.004Z,20.27
2023-10-25T18:02:54.802Z,20.33
2023-10-25T18:07:58.724Z,20.98
2023-10-25T18:13:03.775Z,31.50
2023-10-25T18:18:08.598Z,22.75
2023-10-25T18:23:12.966Z,34.30
2023-10-25T18:28:18.025Z,21.67
2023-10-25T18:33:23.406Z,25.15
2023-10-25T18:38:27.394Z,19.20
2023-10-25T18:43:32.908Z,20.83
2023-10-25T18:53:40.399Z,22.77
2023-10-25T18:58:45.966Z,26.75
2023-10-25T19:03:50.338Z,24.25
2023-10-25T19:08:55.443Z,23.55
2023-10-25T19:14:00.821Z,25.70
2023-10-25T19:19:05.181Z,25.55
2023-10-25T19:24:09.343Z,27.25
2023-10-25T19:29:15.506Z,28.90
2023-10-25T19:34:19.909Z,38.25
2023-10-25T19:39:23.531Z,29.15
2023-10-25T19:44:29.163Z,28.23
2023-10-25T19:49:33.175Z,24.45
2023-10-25T19:54:37.510Z,26.10
2023-10-25T19:59:44.327Z,26.83
2023-10-25T20:04:48.169Z,30.30
2023-10-25T20:09:52.264Z,34.95
2023-10-25T20:14:58.492Z,35.87
2023-10-25T20:20:02.233Z,23.83
2023-10-25T20:25:07.220Z,32.85
2023-10-25T20:30:12.911Z,23.77
2023-10-25T20:35:16.844Z,28.98
2023-10-25T20:40:20.558Z,20.50
2023-10-25T20:45:25.582Z,23.40
2023-10-25T20:50:29.726Z,24.98
2023-10-25T20:55:33.980Z,28.23
2023-10-25T21:00:41.893Z,22.00
2023-10-25T21:05:45.784Z,25.33
2023-10-25T21:10:50.149Z,24.35
2023-10-25T21:15:55.463Z,27.07
2023-10-25T21:20:59.689Z,29.15
2023-10-25T21:26:07.535Z,19.10
2023-10-25T21:31:12.827Z,21.38
2023-10-25T21:46:27.311Z,23.55
2023-10-25T21:51:31.206Z,24.10
2023-10-25T21:56:34.940Z,21.30
2023-10-25T22:01:46.471Z,21.92
2023-10-25T22:06:50.707Z,21.17
2023-10-25T22:11:55.007Z,19.00
2023-10-25T22:17:00.822Z,18.53
2023-10-25T22:22:04.905Z,21.90
2023-10-25T22:27:09.793Z,20.27
2023-10-25T22:32:15.262Z,21.45
2023-10-25T22:42:22.595Z,16.40
2023-10-25T22:47:28.087Z,22.45
2023-10-25T22:52:31.778Z,22.63
2023-10-25T22:57:35.415Z,20.60
2023-10-25T23:02:40.655Z,21.50
2023-10-25T23:12:48.459Z,22.40
2023-10-25T23:17:53.476Z,19.13
2023-10-25T23:22:57.184Z,23.23
2023-10-25T23:28:01.014Z,20.13
2023-10-25T23:33:06.209Z,16.42
2023-10-25T23:38:09.860Z,18.75
2023-10-25T23:43:13.529Z,26.90
2023-10-25T23:48:18.991Z,17.65
2023-10-25T23:53:23.359Z,16.90
2023-10-25T23:58:27.099Z,22.40
